AfoVOS II — SV3346 — position and weather

sailwx.info

Track history (hours):
 
Tides and Currents Weather Stations Pressure Air Temp Water Temp Dewpoint Dewpoint Depression Visibility Wind Speed Wind Dir Waves Ship Positions

AfoVOS II

Last reported at 2017-Sep-26 18:31 UTC. Time now 2017-Sep-26 18:38 UTC.
Position N 37°06' E 025°22'.

Length 28 m; draft 3.5 m.

Type: Fishing. MMSI: 237699000.

Date/timePositionNaut miles runAvg speedWind from/ knotsBaromVisibWave heightAir tempDewpointWater temp
2017-Sep-26 18:31N 37°06' E 025°22'0 0.0
2017-Sep-26 18:01N 37°06' E 025°22'0 0.0
2017-Sep-26 17:31N 37°06' E 025°22'0 0.0
2017-Sep-26 17:01N 37°06' E 025°22'0 0.0
2017-Sep-26 16:31N 37°06' E 025°22'0 0.0
2017-Sep-26 16:00N 37°06' E 025°22'0 0.0
2017-Sep-26 15:31N 37°06' E 025°22'0 0.0
2017-Sep-26 15:00N 37°06' E 025°22'0 0.0
2017-Sep-26 14:31N 37°06' E 025°22'0 0.0
2017-Sep-26 14:00N 37°06' E 025°22'0 0.0
2017-Sep-26 13:30N 37°06' E 025°22'0 0.0
2017-Sep-26 13:00N 37°06' E 025°22'0 0.0
2017-Sep-26 12:31N 37°06' E 025°22'0 0.0
2017-Sep-26 12:01N 37°06' E 025°22'0 0.0
2017-Sep-26 11:30N 37°06' E 025°22'1 1.3
2017-Sep-26 11:00N 37°06' E 025°22'1 0.0
2017-Sep-24 11:35N 37°06' E 025°22'0 0.0
2017-Sep-24 11:30N 37°06' E 025°22'4 7.5
2017-Sep-24 11:00N 37°10' E 025°24'510.1
2017-Sep-24 10:30N 37°14' E 025°28'16 3.7
2017-Sep-24 06:08N 37°23' E 025°45'2 2.8
2017-Sep-24 05:24N 37°21' E 025°46'1 2.8
2017-Sep-24 05:00N 37°20' E 025°46'2 2.8
2017-Sep-24 04:12N 37°18' E 025°46'1 2.7
2017-Sep-24 04:00N 37°17' E 025°46'1 2.8
2017-Sep-24 03:30N 37°16' E 025°45'2 3.8
2017-Sep-24 03:00N 37°14' E 025°45'4 7.4
2017-Sep-24 02:30N 37°14' E 025°40'4 8.6
2017-Sep-24 01:59N 37°16' E 025°35'4 8.8
2017-Sep-24 01:30N 37°18' E 025°30'2 3.1
2017-Sep-24 01:00N 37°19' E 025°29'1 2.8
2017-Sep-24 00:30N 37°18' E 025°27'1 2.8
2017-Sep-24 00:00N 37°18' E 025°25'1 2.8
2017-Sep-23 23:30N 37°17' E 025°24'1 2.9
2017-Sep-23 23:00N 37°17' E 025°22'2 3.1
2017-Sep-23 22:30N 37°16' E 025°21'0 0.1
2017-Sep-23 22:00N 37°16' E 025°20'1 2.8
2017-Sep-23 21:30N 37°17' E 025°22'1 2.8
2017-Sep-23 21:00N 37°18' E 025°23'1 2.8
2017-Sep-23 20:30N 37°19' E 025°25'1 2.9
2017-Sep-23 20:00N 37°19' E 025°26'8 0.2
2017-Sep-22 01:46N 37°18' E 025°36'310.0
2017-Sep-22 01:27N 37°18' E 025°32'1 2.7
2017-Sep-22 01:01N 37°18' E 025°31'1 2.8
2017-Sep-22 00:31N 37°19' E 025°29'1 2.7
2017-Sep-22 00:01N 37°18' E 025°27'1 2.8
2017-Sep-21 23:30N 37°18' E 025°26'1 2.8
2017-Sep-21 23:01N 37°18' E 025°24'1 2.8
2017-Sep-21 22:31N 37°17' E 025°22'2 3.0
2017-Sep-21 22:01N 37°16' E 025°21'1 2.4
2017-Sep-21 21:31N 37°17' E 025°22'1 2.8
2017-Sep-21 21:00N 37°18' E 025°23'1 3.0
2017-Sep-21 20:31N 37°19' E 025°25'2 3.0
2017-Sep-21 20:01N 37°19' E 025°27'1 2.9
2017-Sep-21 19:31N 37°19' E 025°29'1 2.9
2017-Sep-21 19:00N 37°19' E 025°30'4 7.2
2017-Sep-21 18:26N 37°17' E 025°35'5 9.3
2017-Sep-21 17:57N 37°16' E 025°40'4 9.3
2017-Sep-21 17:30N 37°14' E 025°45'0 0.5
2017-Sep-21 17:00N 37°13' E 025°45'1 2.8
2017-Sep-21 16:31N 37°15' E 025°45'1 2.8
2017-Sep-21 16:01N 37°16' E 025°45'1 2.8
2017-Sep-21 15:31N 37°18' E 025°45'1 2.8
2017-Sep-21 15:01N 37°19' E 025°45'1 2.8
2017-Sep-21 14:30N 37°20' E 025°45'1 2.9
2017-Sep-21 14:00N 37°22' E 025°45'1 2.8
2017-Sep-21 13:29N 37°23' E 025°43'2 2.8
2017-Sep-21 12:44N 37°21' E 025°44'1 4.2
2017-Sep-21 12:31N 37°20' E 025°44'0 0.2
2017-Sep-21 12:00N 37°20' E 025°44'6 1.5
2017-Sep-21 07:53N 37°26' E 025°47'1 1.9
2017-Sep-21 07:25N 37°25' E 025°46'2 0.7
2017-Sep-21 04:07N 37°23' E 025°45'0 2.8
2017-Sep-21 04:00N 37°23' E 025°45'2 2.8
2017-Sep-21 03:28N 37°21' E 025°46'1 2.9
2017-Sep-21 03:00N 37°20' E 025°46'4 7.1
2017-Sep-21 02:30N 37°17' E 025°43'8 9.0
2017-Sep-21 01:38N 37°14' E 025°34'5 9.5
2017-Sep-21 01:09N 37°12' E 025°29'1 9.1
2017-Sep-21 01:00N 37°11' E 025°28'5 9.2
2017-Sep-21 00:30N 37°08' E 025°24'2 3.8
2017-Sep-21 00:00N 37°06' E 025°22'0 0.0
2017-Sep-20 23:30N 37°06' E 025°22'0 0.0
2017-Sep-20 23:00N 37°06' E 025°22'0 0.0
2017-Sep-20 22:30N 37°06' E 025°22'0 0.0
2017-Sep-20 22:00N 37°06' E 025°22'0 0.0
2017-Sep-20 21:30N 37°06' E 025°22'0 0.0
2017-Sep-20 21:00N 37°06' E 025°22'0 0.0
2017-Sep-20 20:30N 37°06' E 025°22'0 0.0
2017-Sep-20 20:00N 37°06' E 025°22'0 0.0
2017-Sep-20 19:30N 37°06' E 025°22'0 0.0
2017-Sep-20 19:00N 37°06' E 025°22'0 0.0
2017-Sep-20 18:30N 37°06' E 025°22'0 0.0
2017-Sep-20 18:00N 37°06' E 025°22'0 0.0
2017-Sep-20 17:30N 37°06' E 025°22'0 0.0
2017-Sep-20 17:00N 37°06' E 025°22'0 0.0
2017-Sep-20 16:30N 37°06' E 025°22'0 0.0
2017-Sep-20 16:00N 37°06' E 025°22'0 0.0
2017-Sep-20 15:30N 37°06' E 025°22'0 0.0
2017-Sep-20 15:00N 37°06' E 025°22'0 0.1
2017-Sep-20 14:00N 37°06' E 025°22'3 6.4
2017-Sep-20 13:28N 37°09' E 025°25'4 9.5
2017-Sep-20 13:00N 37°12' E 025°29'5 9.5
2017-Sep-20 12:29N 37°16' E 025°33'15 3.7
2017-Sep-20 08:18N 37°28' E 025°46'2 4.2
2017-Sep-20 07:52N 37°26' E 025°47'1 2.5
2017-Sep-20 07:27N 37°25' E 025°46'0 0.5
2017-Sep-20 07:00N 37°25' E 025°46'1 2.8
2017-Sep-20 06:29N 37°27' E 025°45'4 1.5
2017-Sep-20 04:00N 37°23' E 025°45'1 2.8
2017-Sep-20 03:30N 37°22' E 025°46'1 2.8
2017-Sep-20 03:00N 37°21' E 025°47'3 6.2
2017-Sep-20 02:30N 37°19' E 025°50'6 0.7
2017-Sep-19 17:53N 37°13' E 025°50'410.1
2017-Sep-19 17:30N 37°13' E 025°45'1 2.2
2017-Sep-19 17:00N 37°13' E 025°44'1 2.8
2017-Sep-19 16:30N 37°14' E 025°45'1 2.8
2017-Sep-19 16:00N 37°16' E 025°45'1 2.8
2017-Sep-19 15:30N 37°17' E 025°45'1 2.8
2017-Sep-19 15:00N 37°19' E 025°45'1 2.8
2017-Sep-19 14:30N 37°20' E 025°45'1 2.8
2017-Sep-19 14:00N 37°21' E 025°45'2 1.4
2017-Sep-19 12:46N 37°20' E 025°43'0 1.2
2017-Sep-19 12:29N 37°20' E 025°43'1 1.3
2017-Sep-19 11:53N 37°21' E 025°43'7 2.6
2017-Sep-19 09:12N 37°28' E 025°44'1 3.0
2017-Sep-19 08:45N 37°28' E 025°46'1 2.9
2017-Sep-19 08:17N 37°28' E 025°47'1 1.2
2017-Sep-19 07:45N 37°28' E 025°48'6 1.7
2017-Sep-19 04:16N 37°23' E 025°45'1 2.8
2017-Sep-19 04:00N 37°22' E 025°46'1 2.8
2017-Sep-19 03:30N 37°21' E 025°47'2 3.6
2017-Sep-19 03:00N 37°20' E 025°48'4 8.5
2017-Sep-19 02:30N 37°17' E 025°44'8 9.8
2017-Sep-19 01:41N 37°14' E 025°34'4 9.9
2017-Sep-19 01:19N 37°13' E 025°30'3 9.4
2017-Sep-19 01:00N 37°11' E 025°27'5 9.5
2017-Sep-19 00:30N 37°07' E 025°23'1 2.5
2017-Sep-19 00:00N 37°06' E 025°22'0 0.0
2017-Sep-18 23:30N 37°06' E 025°22'0 0.0
2017-Sep-18 23:00N 37°06' E 025°22'0 0.0
2017-Sep-18 22:30N 37°06' E 025°22'0 0.0
2017-Sep-18 22:00N 37°06' E 025°22'0 0.0
2017-Sep-18 21:30N 37°06' E 025°22'0 0.0
2017-Sep-18 21:00N 37°06' E 025°22'0 0.0
2017-Sep-18 20:30N 37°06' E 025°22'0 0.0
2017-Sep-18 20:00N 37°06' E 025°22'0 0.0
2017-Sep-18 19:30N 37°06' E 025°22'0 0.0
2017-Sep-18 19:00N 37°06' E 025°22'0 0.0
2017-Sep-18 18:30N 37°06' E 025°22'0 0.0
2017-Sep-18 18:00N 37°06' E 025°22'0 0.0
2017-Sep-18 17:30N 37°06' E 025°22'0 0.0
2017-Sep-18 17:00N 37°06' E 025°22'0 0.0
2017-Sep-18 16:30N 37°06' E 025°22'0 0.0
2017-Sep-18 16:00N 37°06' E 025°22'0 0.0
2017-Sep-18 15:30N 37°06' E 025°22'0 0.0
2017-Sep-18 15:00N 37°06' E 025°22'0 0.0
2017-Sep-18 14:30N 37°06' E 025°22'0 0.2
2017-Sep-18 14:00N 37°06' E 025°22'0 0.9
2017-Sep-18 13:30N 37°07' E 025°22'510.5
2017-Sep-18 13:00N 37°10' E 025°27'610.6
2017-Sep-18 12:27N 37°14' E 025°32'1110.4
2017-Sep-18 11:25N 37°22' E 025°42'6 2.3
2017-Sep-18 08:35N 37°28' E 025°44'3 3.8
2017-Sep-18 07:54N 37°28' E 025°47'5 1.5
2017-Sep-18 04:29N 37°23' E 025°45'1 2.8
2017-Sep-18 04:00N 37°22' E 025°46'1 2.8
2017-Sep-18 03:30N 37°21' E 025°47'2 4.2
2017-Sep-18 03:00N 37°18' E 025°46'8 9.9
2017-Sep-18 02:10N 37°18' E 025°36'2 9.4
2017-Sep-18 02:00N 37°18' E 025°34'4 8.2
2017-Sep-18 01:30N 37°18' E 025°29'1 1.5
2017-Sep-18 01:00N 37°19' E 025°28'1 2.7
2017-Sep-18 00:30N 37°19' E 025°26'1 3.0
2017-Sep-18 00:00N 37°18' E 025°25'1 3.0
2017-Sep-17 23:30N 37°18' E 025°23'1 3.0
2017-Sep-17 23:00N 37°17' E 025°21'2 3.4
2017-Sep-17 22:30N 37°16' E 025°20'1 1.6
2017-Sep-17 22:00N 37°16' E 025°21'1 2.9
2017-Sep-17 21:31N 37°17' E 025°22'1 3.0
2017-Sep-17 21:00N 37°18' E 025°23'1 2.9
2017-Sep-17 20:30N 37°18' E 025°25'1 2.9
2017-Sep-17 20:00N 37°19' E 025°27'1 2.9
2017-Sep-17 19:30N 37°19' E 025°29'1 2.8
2017-Sep-17 19:00N 37°19' E 025°30'5 7.5
2017-Sep-17 18:24N 37°17' E 025°36'4 9.6
2017-Sep-17 17:57N 37°16' E 025°40'4 9.1
2017-Sep-17 17:30N 37°14' E 025°45'0 0.5
2017-Sep-17 17:00N 37°14' E 025°45'1 2.8
2017-Sep-17 16:31N 37°15' E 025°45'1 2.8
2017-Sep-17 16:00N 37°16' E 025°46'1 2.8
2017-Sep-17 15:30N 37°18' E 025°46'1 2.8
2017-Sep-17 15:00N 37°19' E 025°46'1 2.8
2017-Sep-17 14:30N 37°21' E 025°45'1 2.8
2017-Sep-17 14:00N 37°22' E 025°45'3 2.2
2017-Sep-17 12:36N 37°19' E 025°43'0 1.2
2017-Sep-17 12:19N 37°20' E 025°43'7 1.6
2017-Sep-17 07:58N 37°26' E 025°47'1 1.4
2017-Sep-17 07:28N 37°25' E 025°46'2 2.4
2017-Sep-17 06:50N 37°27' E 025°46'4 1.3
2017-Sep-17 04:13N 37°23' E 025°45'1 2.7
2017-Sep-17 03:47N 37°22' E 025°46'1 2.7
2017-Sep-17 03:30N 37°22' E 025°47'1 2.7
2017-Sep-17 03:00N 37°21' E 025°48'2 3.2
2017-Sep-17 02:30N 37°19' E 025°47'2 3.8
2017-Sep-17 02:00N 37°17' E 025°46'2 3.9
2017-Sep-17 01:30N 37°16' E 025°45'2 3.9
2017-Sep-17 01:00N 37°14' E 025°43'2 3.9
2017-Sep-17 00:30N 37°13' E 025°42'1 1.1
2017-Sep-17 00:00N 37°13' E 025°42'1 2.9
2017-Sep-16 23:30N 37°14' E 025°41'6 3.0
2017-Sep-16 21:26N 37°20' E 025°37'4 9.5
2017-Sep-16 21:00N 37°18' E 025°32'1 1.4
2017-Sep-16 20:30N 37°18' E 025°31'1 2.9
2017-Sep-16 20:00N 37°19' E 025°29'1 2.8
2017-Sep-16 19:30N 37°19' E 025°28'1 2.8
2017-Sep-16 19:00N 37°18' E 025°26'  
Track history (hours):
 
Tides and Currents Weather Stations Pressure Air Temp Water Temp Dewpoint Dewpoint Depression Visibility Wind Speed Wind Dir Waves Ship Positions

AfoVOS II

Last reported at 2017-Sep-26 18:31 UTC. Time now 2017-Sep-26 18:38 UTC.
Position N 37°06' E 025°22'.

Length 28 m; draft 3.5 m.

Type: Fishing. MMSI: 237699000.

Date/timePositionNaut miles runAvg speedWind from/ knotsBaromVisibWave heightAir tempDewpointWater temp
2017-Sep-26 18:31N 37°06' E 025°22'0 0.0
2017-Sep-26 18:01N 37°06' E 025°22'0 0.0
2017-Sep-26 17:31N 37°06' E 025°22'0 0.0
2017-Sep-26 17:01N 37°06' E 025°22'0 0.0
2017-Sep-26 16:31N 37°06' E 025°22'0 0.0
2017-Sep-26 16:00N 37°06' E 025°22'0 0.0
2017-Sep-26 15:31N 37°06' E 025°22'0 0.0
2017-Sep-26 15:00N 37°06' E 025°22'0 0.0
2017-Sep-26 14:31N 37°06' E 025°22'0 0.0
2017-Sep-26 14:00N 37°06' E 025°22'0 0.0
2017-Sep-26 13:30N 37°06' E 025°22'0 0.0
2017-Sep-26 13:00N 37°06' E 025°22'0 0.0
2017-Sep-26 12:31N 37°06' E 025°22'0 0.0
2017-Sep-26 12:01N 37°06' E 025°22'0 0.0
2017-Sep-26 11:30N 37°06' E 025°22'1 1.3
2017-Sep-26 11:00N 37°06' E 025°22'1 0.0
2017-Sep-24 11:35N 37°06' E 025°22'0 0.0
2017-Sep-24 11:30N 37°06' E 025°22'4 7.5
2017-Sep-24 11:00N 37°10' E 025°24'510.1
2017-Sep-24 10:30N 37°14' E 025°28'16 3.7
2017-Sep-24 06:08N 37°23' E 025°45'2 2.8
2017-Sep-24 05:24N 37°21' E 025°46'1 2.8
2017-Sep-24 05:00N 37°20' E 025°46'2 2.8
2017-Sep-24 04:12N 37°18' E 025°46'1 2.7
2017-Sep-24 04:00N 37°17' E 025°46'1 2.8
2017-Sep-24 03:30N 37°16' E 025°45'2 3.8
2017-Sep-24 03:00N 37°14' E 025°45'4 7.4
2017-Sep-24 02:30N 37°14' E 025°40'4 8.6
2017-Sep-24 01:59N 37°16' E 025°35'4 8.8
2017-Sep-24 01:30N 37°18' E 025°30'2 3.1
2017-Sep-24 01:00N 37°19' E 025°29'1 2.8
2017-Sep-24 00:30N 37°18' E 025°27'1 2.8
2017-Sep-24 00:00N 37°18' E 025°25'1 2.8
2017-Sep-23 23:30N 37°17' E 025°24'1 2.9
2017-Sep-23 23:00N 37°17' E 025°22'2 3.1
2017-Sep-23 22:30N 37°16' E 025°21'0 0.1
2017-Sep-23 22:00N 37°16' E 025°20'1 2.8
2017-Sep-23 21:30N 37°17' E 025°22'1 2.8
2017-Sep-23 21:00N 37°18' E 025°23'1 2.8
2017-Sep-23 20:30N 37°19' E 025°25'1 2.9
2017-Sep-23 20:00N 37°19' E 025°26'8 0.2
2017-Sep-22 01:46N 37°18' E 025°36'310.0
2017-Sep-22 01:27N 37°18' E 025°32'1 2.7
2017-Sep-22 01:01N 37°18' E 025°31'1 2.8
2017-Sep-22 00:31N 37°19' E 025°29'1 2.7
2017-Sep-22 00:01N 37°18' E 025°27'1 2.8
2017-Sep-21 23:30N 37°18' E 025°26'1 2.8
2017-Sep-21 23:01N 37°18' E 025°24'1 2.8
2017-Sep-21 22:31N 37°17' E 025°22'2 3.0
2017-Sep-21 22:01N 37°16' E 025°21'1 2.4
2017-Sep-21 21:31N 37°17' E 025°22'1 2.8
2017-Sep-21 21:00N 37°18' E 025°23'1 3.0
2017-Sep-21 20:31N 37°19' E 025°25'2 3.0
2017-Sep-21 20:01N 37°19' E 025°27'1 2.9
2017-Sep-21 19:31N 37°19' E 025°29'1 2.9
2017-Sep-21 19:00N 37°19' E 025°30'4 7.2
2017-Sep-21 18:26N 37°17' E 025°35'5 9.3
2017-Sep-21 17:57N 37°16' E 025°40'4 9.3
2017-Sep-21 17:30N 37°14' E 025°45'0 0.5
2017-Sep-21 17:00N 37°13' E 025°45'1 2.8
2017-Sep-21 16:31N 37°15' E 025°45'1 2.8
2017-Sep-21 16:01N 37°16' E 025°45'1 2.8
2017-Sep-21 15:31N 37°18' E 025°45'1 2.8
2017-Sep-21 15:01N 37°19' E 025°45'1 2.8
2017-Sep-21 14:30N 37°20' E 025°45'1 2.9
2017-Sep-21 14:00N 37°22' E 025°45'1 2.8
2017-Sep-21 13:29N 37°23' E 025°43'2 2.8
2017-Sep-21 12:44N 37°21' E 025°44'1 4.2
2017-Sep-21 12:31N 37°20' E 025°44'0 0.2
2017-Sep-21 12:00N 37°20' E 025°44'6 1.5
2017-Sep-21 07:53N 37°26' E 025°47'1 1.9
2017-Sep-21 07:25N 37°25' E 025°46'2 0.7
2017-Sep-21 04:07N 37°23' E 025°45'0 2.8
2017-Sep-21 04:00N 37°23' E 025°45'2 2.8
2017-Sep-21 03:28N 37°21' E 025°46'1 2.9
2017-Sep-21 03:00N 37°20' E 025°46'4 7.1
2017-Sep-21 02:30N 37°17' E 025°43'8 9.0
2017-Sep-21 01:38N 37°14' E 025°34'5 9.5
2017-Sep-21 01:09N 37°12' E 025°29'1 9.1
2017-Sep-21 01:00N 37°11' E 025°28'5 9.2
2017-Sep-21 00:30N 37°08' E 025°24'2 3.8
2017-Sep-21 00:00N 37°06' E 025°22'0 0.0
2017-Sep-20 23:30N 37°06' E 025°22'0 0.0
2017-Sep-20 23:00N 37°06' E 025°22'0 0.0
2017-Sep-20 22:30N 37°06' E 025°22'0 0.0
2017-Sep-20 22:00N 37°06' E 025°22'0 0.0
2017-Sep-20 21:30N 37°06' E 025°22'0 0.0
2017-Sep-20 21:00N 37°06' E 025°22'0 0.0
2017-Sep-20 20:30N 37°06' E 025°22'0 0.0
2017-Sep-20 20:00N 37°06' E 025°22'0 0.0
2017-Sep-20 19:30N 37°06' E 025°22'0 0.0
2017-Sep-20 19:00N 37°06' E 025°22'0 0.0
2017-Sep-20 18:30N 37°06' E 025°22'0 0.0
2017-Sep-20 18:00N 37°06' E 025°22'0 0.0
2017-Sep-20 17:30N 37°06' E 025°22'0 0.0
2017-Sep-20 17:00N 37°06' E 025°22'0 0.0
2017-Sep-20 16:30N 37°06' E 025°22'0 0.0
2017-Sep-20 16:00N 37°06' E 025°22'0 0.0
2017-Sep-20 15:30N 37°06' E 025°22'0 0.0
2017-Sep-20 15:00N 37°06' E 025°22'0 0.1
2017-Sep-20 14:00N 37°06' E 025°22'3 6.4
2017-Sep-20 13:28N 37°09' E 025°25'4 9.5
2017-Sep-20 13:00N 37°12' E 025°29'5 9.5
2017-Sep-20 12:29N 37°16' E 025°33'15 3.7
2017-Sep-20 08:18N 37°28' E 025°46'2 4.2
2017-Sep-20 07:52N 37°26' E 025°47'1 2.5
2017-Sep-20 07:27N 37°25' E 025°46'0 0.5
2017-Sep-20 07:00N 37°25' E 025°46'1 2.8
2017-Sep-20 06:29N 37°27' E 025°45'4 1.5
2017-Sep-20 04:00N 37°23' E 025°45'1 2.8
2017-Sep-20 03:30N 37°22' E 025°46'1 2.8
2017-Sep-20 03:00N 37°21' E 025°47'3 6.2
2017-Sep-20 02:30N 37°19' E 025°50'6 0.7
2017-Sep-19 17:53N 37°13' E 025°50'410.1
2017-Sep-19 17:30N 37°13' E 025°45'1 2.2
2017-Sep-19 17:00N 37°13' E 025°44'1 2.8
2017-Sep-19 16:30N 37°14' E 025°45'1 2.8
2017-Sep-19 16:00N 37°16' E 025°45'1 2.8
2017-Sep-19 15:30N 37°17' E 025°45'1 2.8
2017-Sep-19 15:00N 37°19' E 025°45'1 2.8
2017-Sep-19 14:30N 37°20' E 025°45'1 2.8
2017-Sep-19 14:00N 37°21' E 025°45'2 1.4
2017-Sep-19 12:46N 37°20' E 025°43'0 1.2
2017-Sep-19 12:29N 37°20' E 025°43'1 1.3
2017-Sep-19 11:53N 37°21' E 025°43'7 2.6
2017-Sep-19 09:12N 37°28' E 025°44'1 3.0
2017-Sep-19 08:45N 37°28' E 025°46'1 2.9
2017-Sep-19 08:17N 37°28' E 025°47'1 1.2
2017-Sep-19 07:45N 37°28' E 025°48'6 1.7
2017-Sep-19 04:16N 37°23' E 025°45'1 2.8
2017-Sep-19 04:00N 37°22' E 025°46'1 2.8
2017-Sep-19 03:30N 37°21' E 025°47'2 3.6
2017-Sep-19 03:00N 37°20' E 025°48'4 8.5
2017-Sep-19 02:30N 37°17' E 025°44'8 9.8
2017-Sep-19 01:41N 37°14' E 025°34'4 9.9
2017-Sep-19 01:19N 37°13' E 025°30'3 9.4
2017-Sep-19 01:00N 37°11' E 025°27'5 9.5
2017-Sep-19 00:30N 37°07' E 025°23'1 2.5
2017-Sep-19 00:00N 37°06' E 025°22'0 0.0
2017-Sep-18 23:30N 37°06' E 025°22'0 0.0
2017-Sep-18 23:00N 37°06' E 025°22'0 0.0
2017-Sep-18 22:30N 37°06' E 025°22'0 0.0
2017-Sep-18 22:00N 37°06' E 025°22'0 0.0
2017-Sep-18 21:30N 37°06' E 025°22'0 0.0
2017-Sep-18 21:00N 37°06' E 025°22'0 0.0
2017-Sep-18 20:30N 37°06' E 025°22'0 0.0
2017-Sep-18 20:00N 37°06' E 025°22'0 0.0
2017-Sep-18 19:30N 37°06' E 025°22'0 0.0
2017-Sep-18 19:00N 37°06' E 025°22'0 0.0
2017-Sep-18 18:30N 37°06' E 025°22'0 0.0
2017-Sep-18 18:00N 37°06' E 025°22'0 0.0
2017-Sep-18 17:30N 37°06' E 025°22'0 0.0
2017-Sep-18 17:00N 37°06' E 025°22'0 0.0
2017-Sep-18 16:30N 37°06' E 025°22'0 0.0
2017-Sep-18 16:00N 37°06' E 025°22'0 0.0
2017-Sep-18 15:30N 37°06' E 025°22'0 0.0
2017-Sep-18 15:00N 37°06' E 025°22'0 0.0
2017-Sep-18 14:30N 37°06' E 025°22'0 0.2
2017-Sep-18 14:00N 37°06' E 025°22'0 0.9
2017-Sep-18 13:30N 37°07' E 025°22'510.5
2017-Sep-18 13:00N 37°10' E 025°27'610.6
2017-Sep-18 12:27N 37°14' E 025°32'1110.4
2017-Sep-18 11:25N 37°22' E 025°42'6 2.3
2017-Sep-18 08:35N 37°28' E 025°44'3 3.8
2017-Sep-18 07:54N 37°28' E 025°47'5 1.5
2017-Sep-18 04:29N 37°23' E 025°45'1 2.8
2017-Sep-18 04:00N 37°22' E 025°46'1 2.8
2017-Sep-18 03:30N 37°21' E 025°47'2 4.2
2017-Sep-18 03:00N 37°18' E 025°46'8 9.9
2017-Sep-18 02:10N 37°18' E 025°36'2 9.4
2017-Sep-18 02:00N 37°18' E 025°34'4 8.2
2017-Sep-18 01:30N 37°18' E 025°29'1 1.5
2017-Sep-18 01:00N 37°19' E 025°28'1 2.7
2017-Sep-18 00:30N 37°19' E 025°26'1 3.0
2017-Sep-18 00:00N 37°18' E 025°25'1 3.0
2017-Sep-17 23:30N 37°18' E 025°23'1 3.0
2017-Sep-17 23:00N 37°17' E 025°21'2 3.4
2017-Sep-17 22:30N 37°16' E 025°20'1 1.6
2017-Sep-17 22:00N 37°16' E 025°21'1 2.9
2017-Sep-17 21:31N 37°17' E 025°22'1 3.0
2017-Sep-17 21:00N 37°18' E 025°23'1 2.9
2017-Sep-17 20:30N 37°18' E 025°25'1 2.9
2017-Sep-17 20:00N 37°19' E 025°27'1 2.9
2017-Sep-17 19:30N 37°19' E 025°29'1 2.8
2017-Sep-17 19:00N 37°19' E 025°30'5 7.5
2017-Sep-17 18:24N 37°17' E 025°36'4 9.6
2017-Sep-17 17:57N 37°16' E 025°40'4 9.1
2017-Sep-17 17:30N 37°14' E 025°45'0 0.5
2017-Sep-17 17:00N 37°14' E 025°45'1 2.8
2017-Sep-17 16:31N 37°15' E 025°45'1 2.8
2017-Sep-17 16:00N 37°16' E 025°46'1 2.8
2017-Sep-17 15:30N 37°18' E 025°46'1 2.8
2017-Sep-17 15:00N 37°19' E 025°46'1 2.8
2017-Sep-17 14:30N 37°21' E 025°45'1 2.8
2017-Sep-17 14:00N 37°22' E 025°45'3 2.2
2017-Sep-17 12:36N 37°19' E 025°43'0 1.2
2017-Sep-17 12:19N 37°20' E 025°43'7 1.6
2017-Sep-17 07:58N 37°26' E 025°47'1 1.4
2017-Sep-17 07:28N 37°25' E 025°46'2 2.4
2017-Sep-17 06:50N 37°27' E 025°46'4 1.3
2017-Sep-17 04:13N 37°23' E 025°45'1 2.7
2017-Sep-17 03:47N 37°22' E 025°46'1 2.7
2017-Sep-17 03:30N 37°22' E 025°47'1 2.7
2017-Sep-17 03:00N 37°21' E 025°48'2 3.2
2017-Sep-17 02:30N 37°19' E 025°47'2 3.8
2017-Sep-17 02:00N 37°17' E 025°46'2 3.9
2017-Sep-17 01:30N 37°16' E 025°45'2 3.9
2017-Sep-17 01:00N 37°14' E 025°43'2 3.9
2017-Sep-17 00:30N 37°13' E 025°42'1 1.1
2017-Sep-17 00:00N 37°13' E 025°42'1 2.9
2017-Sep-16 23:30N 37°14' E 025°41'6 3.0
2017-Sep-16 21:26N 37°20' E 025°37'4 9.5
2017-Sep-16 21:00N 37°18' E 025°32'1 1.4
2017-Sep-16 20:30N 37°18' E 025°31'1 2.9
2017-Sep-16 20:00N 37°19' E 025°29'1 2.8
2017-Sep-16 19:30N 37°19' E 025°28'1 2.8
2017-Sep-16 19:00N 37°18' E 025°26'  

Dump ship's entire track history